Time;durP1;ratioP1;P1;durP2;ratioP2;P2;SDS_P1;SDS_P2;PMS_P1;PMS_P2;Temp;Humidity;BMP_temperature;BMP_pressure;BME280_temperature;BME280_humidity;BME280_pressure;Samples;Min_cycle;Max_cycle;Signal;HPM_P1;HPM_P2
2021/05/05 00:01:35;;;;;;;3.35;3.05;;;;;;;12.82;100.00;95203.56;5001327;28;20516;-64
2021/05/05 00:04:05;;;;;;;5.50;3.60;;;;;;;12.89;100.00;95200.97;5003329;28;20073;-63
2021/05/05 00:06:33;;;;;;;4.75;3.10;;;;;;;12.87;100.00;95197.72;5003968;28;20379;-62
2021/05/05 00:09:00;;;;;;;3.75;3.45;;;;;;;12.97;100.00;95192.94;4998907;28;20034;-59
2021/05/05 00:11:27;;;;;;;4.32;3.50;;;;;;;12.81;100.00;95196.63;5000115;28;20489;-62
2021/05/05 00:13:55;;;;;;;3.58;3.28;;;;;;;12.89;100.00;95184.28;4985107;28;20194;-59
2021/05/05 00:16:22;;;;;;;5.10;3.53;;;;;;;12.82;100.00;95192.16;4999404;28;20077;-62
2021/05/05 00:18:50;;;;;;;4.00;3.30;;;;;;;12.66;100.00;95185.28;5001729;28;20516;-61
2021/05/05 00:21:18;;;;;;;4.40;3.45;;;;;;;12.54;100.00;95184.16;5004296;28;20073;-61
2021/05/05 00:23:46;;;;;;;5.10;3.63;;;;;;;12.47;100.00;95180.63;5001607;28;20487;-63
2021/05/05 00:26:13;;;;;;;4.28;3.75;;;;;;;12.51;100.00;95180.06;5004500;28;20062;-62
2021/05/05 00:28:42;;;;;;;3.97;3.58;;;;;;;12.49;100.00;95179.44;4999363;28;20073;-63
2021/05/05 00:31:09;;;;;;;3.85;3.45;;;;;;;12.55;100.00;95170.75;5003087;28;20077;-58
2021/05/05 00:33:37;;;;;;;4.03;3.63;;;;;;;12.57;100.00;95171.38;5006341;28;20524;-62
2021/05/05 00:36:05;;;;;;;4.40;3.70;;;;;;;12.57;100.00;95183.78;5006079;28;20084;-60
2021/05/05 00:38:34;;;;;;;5.10;3.80;;;;;;;12.60;100.00;95180.78;5003214;28;20073;-63
2021/05/05 00:41:06;;;;;;;7.93;4.15;;;;;;;12.69;100.00;95171.69;5000568;28;20058;-62
2021/05/05 00:43:34;;;;;;;4.35;3.95;;;;;;;12.42;100.00;95170.63;5001473;28;20539;-62
2021/05/05 00:46:01;;;;;;;5.93;3.90;;;;;;;12.45;100.00;95166.78;5010020;28;20085;-61
2021/05/05 00:48:29;;;;;;;4.38;3.78;;;;;;;12.41;100.00;95161.03;5007152;28;20084;-62
2021/05/05 00:50:57;;;;;;;4.70;4.05;;;;;;;12.56;100.00;95161.00;4997180;28;20468;-62
2021/05/05 00:53:25;;;;;;;4.50;4.00;;;;;;;12.69;100.00;95168.22;5004574;28;20480;-62
2021/05/05 00:55:53;;;;;;;5.65;4.55;;;;;;;12.59;100.00;95164.09;5002138;28;20066;-62
2021/05/05 00:58:21;;;;;;;4.53;4.10;;;;;;;12.56;100.00;95166.31;5004137;28;20074;-60
2021/05/05 01:00:50;;;;;;;4.32;3.90;;;;;;;12.72;100.00;95163.38;5002507;28;20096;-62
2021/05/05 01:03:21;;;;;;;5.57;4.17;;;;;;;12.58;100.00;95162.44;5006522;28;20054;-64
2021/05/05 01:05:50;;;;;;;4.78;4.30;;;;;;;12.41;100.00;95155.75;4995642;28;20080;-60
2021/05/05 01:08:20;;;;;;;4.47;4.07;;;;;;;12.36;100.00;95147.59;4985889;28;20034;-64
2021/05/05 01:10:48;;;;;;;;;;;;;;;12.58;100.00;95153.69;4989653;28;20046;-62
2021/05/05 01:13:17;;;;;;;4.60;4.13;;;;;;;12.56;100.00;95156.53;5003853;28;19969;-62
2021/05/05 01:15:44;;;;;;;7.32;3.80;;;;;;;12.28;100.00;95156.44;5003488;28;20096;-62
2021/05/05 01:18:12;;;;;;;6.07;4.50;;;;;;;12.31;100.00;95145.50;5002140;28;20092;-63
2021/05/05 01:20:40;;;;;;;7.20;4.47;;;;;;;12.33;100.00;95142.69;5003046;28;20061;-63
2021/05/05 01:23:09;;;;;;;4.70;4.20;;;;;;;12.24;100.00;95149.88;5005430;28;20527;-61
2021/05/05 01:25:36;;;;;;;5.85;4.30;;;;;;;12.11;100.00;95141.81;5000759;28;20065;-65
2021/05/05 01:28:04;;;;;;;5.43;4.60;;;;;;;12.06;100.00;95141.56;5007731;28;20077;-60
2021/05/05 01:30:33;;;;;;;7.15;4.50;;;;;;;12.26;100.00;95141.78;5003326;28;20076;-62
2021/05/05 01:33:00;;;;;;;4.85;4.15;;;;;;;12.13;100.00;95152.22;4998730;28;20074;-63
2021/05/05 01:35:28;;;;;;;5.30;4.75;;;;;;;12.20;100.00;95155.75;5005815;28;20653;-66
2021/05/05 01:37:55;;;;;;;6.50;4.55;;;;;;;12.07;100.00;95149.28;5002727;28;20065;-62
2021/05/05 01:40:26;;;;;;;7.53;4.47;;;;;;;12.01;100.00;95150.06;5004033;28;20082;-58
2021/05/05 01:42:54;;;;;;;6.10;4.40;;;;;;;12.13;100.00;95141.63;5004208;28;20081;-61
2021/05/05 01:45:22;;;;;;;5.00;4.45;;;;;;;12.03;100.00;95145.38;5005181;28;20452;-57
2021/05/05 01:47:54;;;;;;;5.00;4.50;;;;;;;11.91;100.00;95146.06;4999507;28;20066;-64
2021/05/05 01:50:22;;;;;;;5.05;4.43;;;;;;;12.03;100.00;95148.03;5004979;28;20065;-62
2021/05/05 01:52:50;;;;;;;4.85;4.35;;;;;;;11.83;100.00;95142.47;4999934;28;20045;-61
2021/05/05 01:55:18;;;;;;;4.72;4.22;;;;;;;11.83;100.00;95139.84;4987720;28;20069;-60
2021/05/05 01:57:47;;;;;;;6.15;4.20;;;;;;;11.83;100.00;95128.47;5000226;28;20081;-65
2021/05/05 02:00:16;;;;;;;5.07;4.43;;;;;;;11.91;100.00;95130.22;5001093;28;20069;-59
2021/05/05 02:02:45;;;;;;;5.38;4.50;;;;;;;11.81;100.00;95133.94;5002601;28;20070;-61
2021/05/05 02:05:13;;;;;;;5.18;4.40;;;;;;;11.68;100.00;95128.50;5000690;28;20081;-64
2021/05/05 02:07:48;;;;;;;6.53;4.13;;;;;;;11.76;100.00;95131.00;5000765;28;20077;-62
2021/05/05 02:10:17;;;;;;;6.28;4.72;;;;;;;11.82;100.00;95129.47;5002199;28;20042;-63
2021/05/05 02:12:45;;;;;;;4.95;4.45;;;;;;;11.76;100.00;95130.19;5000537;28;20073;-61
2021/05/05 02:15:15;;;;;;;5.75;4.22;;;;;;;11.65;100.00;95124.38;5001240;28;20097;-63
2021/05/05 02:17:42;;;;;;;5.97;4.45;;;;;;;11.77;100.00;95121.28;4999664;28;20116;-62
2021/05/05 02:20:12;;;;;;;5.70;4.97;;;;;;;11.71;100.00;95112.28;5004933;28;20092;-59
2021/05/05 02:22:39;;;;;;;5.75;4.70;;;;;;;11.70;100.00;95109.81;5000232;28;20069;-61
2021/05/05 02:25:09;;;;;;;8.07;4.90;;;;;;;11.64;100.00;95109.56;4999013;28;20538;-64
2021/05/05 02:27:37;;;;;;;6.88;5.05;;;;;;;11.63;100.00;95107.94;5003962;28;20485;-63
2021/05/05 02:30:07;;;;;;;6.38;4.05;;;;;;;11.45;100.00;95098.75;5004139;28;20066;-64
2021/05/05 02:32:36;;;;;;;5.63;4.57;;;;;;;11.51;100.00;95100.66;4996514;28;20054;-59
2021/05/05 02:35:06;;;;;;;5.20;4.65;;;;;;;11.58;100.00;95104.19;5001651;28;20065;-62
2021/05/05 02:37:33;;;;;;;4.85;4.32;;;;;;;11.41;100.00;95108.84;5004800;28;20102;-60
2021/05/05 02:40:01;;;;;;;5.90;4.97;;;;;;;11.70;100.00;95109.81;4999678;28;20089;-57
2021/05/05 02:42:29;;;;;;;5.43;4.75;;;;;;;11.47;100.00;95102.03;4985715;28;20069;-64
2021/05/05 02:44:57;;;;;;;7.00;5.25;;;;;;;11.41;100.00;95100.94;5000557;28;20073;-63
2021/05/05 02:47:24;;;;;;;6.15;4.65;;;;;;;11.34;100.00;95097.38;5003569;28;20066;-63
2021/05/05 02:49:53;;;;;;;5.95;4.93;;;;;;;11.46;100.00;95093.28;5000486;28;20476;-61
2021/05/05 02:52:20;;;;;;;5.75;5.00;;;;;;;11.53;100.00;95080.19;5002677;28;20509;-61
2021/05/05 02:54:48;;;;;;;5.57;4.97;;;;;;;11.49;100.00;95086.81;4998421;28;20090;-61
2021/05/05 02:57:16;;;;;;;5.18;4.65;;;;;;;11.45;100.00;95085.53;5004154;28;20073;-63
2021/05/05 02:59:44;;;;;;;4.53;4.00;;;;;;;11.41;100.00;95088.53;5000401;28;20072;-62
2021/05/05 03:02:12;;;;;;;5.03;4.45;;;;;;;11.28;100.00;95083.09;5002758;28;20433;-63
2021/05/05 03:04:40;;;;;;;4.45;3.65;;;;;;;11.21;100.00;95076.09;5002119;28;20540;-62
2021/05/05 03:07:08;;;;;;;5.50;4.90;;;;;;;10.99;100.00;95075.19;4997141;28;20085;-60
2021/05/05 03:09:36;;;;;;;6.63;4.53;;;;;;;10.95;100.00;95074.72;5004604;28;20081;-59
2021/05/05 03:12:05;;;;;;;4.63;4.13;;;;;;;10.81;100.00;95073.72;5002215;28;20088;-62
2021/05/05 03:14:32;;;;;;;5.38;4.63;;;;;;;10.74;100.00;95080.72;4997425;28;20073;-62
2021/05/05 03:17:01;;;;;;;5.13;4.32;;;;;;;10.60;100.00;95076.25;5001009;28;20061;-60
2021/05/05 03:19:28;;;;;;;5.63;4.72;;;;;;;10.76;100.00;95075.25;5001363;28;20104;-63
2021/05/05 03:21:56;;;;;;;6.10;5.30;;;;;;;10.82;100.00;95083.25;4999812;28;20077;-64
2021/05/05 03:24:25;;;;;;;5.90;5.30;;;;;;;10.68;100.00;95081.41;5000720;28;20034;-59
2021/05/05 03:26:52;;;;;;;6.95;5.07;;;;;;;10.66;100.00;95073.69;5000161;28;20753;-61
2021/05/05 03:29:20;;;;;;;6.75;5.45;;;;;;;10.73;100.00;95075.59;5006125;28;20088;-62
2021/05/05 03:31:47;;;;;;;6.45;5.13;;;;;;;10.72;100.00;95064.25;5000788;28;20547;-64
2021/05/05 03:34:16;;;;;;;7.05;4.93;;;;;;;10.62;100.00;95055.78;5000153;28;20081;-62
2021/05/05 03:36:43;;;;;;;7.97;5.20;;;;;;;10.68;100.00;95055.06;5004008;28;20531;-61
2021/05/05 03:39:11;;;;;;;5.70;5.07;;;;;;;10.64;100.00;95056.41;4999611;28;20077;-61
2021/05/05 03:41:39;;;;;;;5.97;5.38;;;;;;;10.63;100.00;95047.69;4995888;28;20080;-64
2021/05/05 03:44:09;;;;;;;6.70;5.47;;;;;;;10.55;100.00;95057.47;5003762;28;20520;-63
2021/05/05 03:46:38;;;;;;;6.10;5.50;;;;;;;10.52;100.00;95069.19;4999620;28;20074;-61
2021/05/05 03:49:06;;;;;;;5.07;3.80;;;;;;;10.42;100.00;95073.91;4998431;28;20046;-64
2021/05/05 03:51:34;;;;;;;3.70;3.28;;;;;;;10.14;100.00;95069.16;4998490;28;20302;-64
2021/05/05 03:54:01;;;;;;;4.07;3.42;;;;;;;10.25;100.00;95072.34;5001409;28;20058;-58
2021/05/05 03:56:29;;;;;;;7.63;3.70;;;;;;;10.17;100.00;95079.31;5001698;28;20062;-59
2021/05/05 03:58:58;;;;;;;3.97;3.58;;;;;;;9.98;100.00;95091.16;4999357;28;20080;-61
2021/05/05 04:01:25;;;;;;;5.72;3.97;;;;;;;9.72;100.00;95094.09;4996886;28;20085;-60
2021/05/05 04:03:53;;;;;;;5.82;3.90;;;;;;;9.67;100.00;95103.50;5008048;28;20069;-61
2021/05/05 04:06:20;;;;;;;4.38;3.83;;;;;;;9.51;100.00;95109.69;5001601;28;20487;-62
2021/05/05 04:08:48;;;;;;;5.70;4.03;;;;;;;9.64;100.00;95106.50;5003062;28;20070;-63
2021/05/05 04:11:16;;;;;;;4.18;3.67;;;;;;;9.42;100.00;95111.50;5007017;28;20075;-63
2021/05/05 04:13:47;;;;;;;3.30;2.70;;;;;;;9.00;100.00;95117.06;5004157;28;20072;-61
2021/05/05 04:16:34;;;;;;;3.83;2.70;;;;;;;8.70;100.00;95116.78;5003159;28;20470;-62
2021/05/05 04:19:20;;;;;;;3.08;2.35;;;;;;;8.79;100.00;95144.69;5005257;28;20398;-65
2021/05/05 04:22:06;;;;;;;2.80;2.50;;;;;;;8.48;100.00;95154.25;5007483;28;20065;-62
2021/05/05 04:24:51;;;;;;;3.25;2.50;;;;;;;8.43;100.00;95146.88;5003296;28;20057;-61
2021/05/05 04:27:20;;;;;;;3.92;2.70;;;;;;;8.17;100.00;95152.22;4999631;28;20074;-61
2021/05/05 04:29:47;;;;;;;8.07;5.68;;;;;;;8.24;100.00;95153.19;5006014;28;20429;-63
2021/05/05 04:32:16;;;;;;;3.28;2.70;;;;;;;8.43;100.00;95154.75;5007197;28;20078;-63
2021/05/05 04:34:44;;;;;;;2.60;2.40;;;;;;;8.29;100.00;95169.31;5001906;28;20080;-62
2021/05/05 04:37:12;;;;;;;2.72;2.50;;;;;;;8.31;100.00;95164.69;5005803;28;20206;-61
2021/05/05 04:39:40;;;;;;;4.53;2.50;;;;;;;8.19;100.00;95179.16;5007097;28;20082;-61
2021/05/05 04:42:10;;;;;;;3.13;2.83;;;;;;;8.18;100.00;95184.53;5002399;28;20124;-58
2021/05/05 04:44:38;;;;;;;3.17;2.80;;;;;;;8.11;100.00;95194.03;5000660;28;20077;-59
2021/05/05 04:47:06;;;;;;;3.78;2.40;;;;;;;7.96;100.00;95204.34;5006906;28;20065;-58
2021/05/05 04:49:35;;;;;;;2.75;2.20;;;;;;;7.87;100.00;95203.47;4999919;28;20069;-62
2021/05/05 04:52:03;;;;;;;4.55;2.30;;;;;;;7.70;100.00;95207.84;5006681;28;20493;-61
2021/05/05 04:54:30;;;;;;;4.07;2.20;;;;;;;7.59;100.00;95214.19;5005266;28;20054;-61
2021/05/05 04:56:58;;;;;;;6.00;2.38;;;;;;;7.49;100.00;95205.63;5003156;28;20073;-62
2021/05/05 04:59:25;;;;;;;3.15;2.50;;;;;;;7.53;100.00;95220.06;4999790;28;20085;-64
2021/05/05 05:01:53;;;;;;;4.78;2.05;;;;;;;7.50;100.00;95216.94;5004244;28;20065;-62
2021/05/05 05:04:21;;;;;;;2.95;2.45;;;;;;;7.40;100.00;95227.56;4987427;28;20050;-64
2021/05/05 05:06:49;;;;;;;2.97;2.67;;;;;;;7.28;100.00;95242.72;5003531;28;20073;-64
2021/05/05 05:09:16;;;;;;;4.07;2.63;;;;;;;7.42;100.00;95254.44;4999468;28;20061;-63
2021/05/05 05:11:44;;;;;;;5.35;2.90;;;;;;;7.45;100.00;95259.38;5006171;28;20531;-62
2021/05/05 05:14:12;;;;;;;1.40;1.40;;;;;;;7.35;100.00;95248.97;4980654;28;20508;-63
2021/05/05 05:16:39;;;;;;;4.65;2.30;;;;;;;7.43;100.00;95268.38;5005120;28;20080;-64
2021/05/05 05:19:07;;;;;;;4.72;2.50;;;;;;;7.46;100.00;95265.44;5001515;28;20086;-64
2021/05/05 05:21:36;;;;;;;6.15;2.63;;;;;;;7.60;100.00;95267.47;5006242;28;20344;-63
2021/05/05 05:24:06;;;;;;;5.18;2.80;;;;;;;7.60;100.00;95270.94;4988141;28;20304;-64
2021/05/05 05:26:33;;;;;;;4.13;3.03;;;;;;;7.63;100.00;95285.53;5000190;28;20357;-64
2021/05/05 05:29:01;;;;;;;5.38;2.95;;;;;;;7.50;100.00;95293.00;4986521;28;20085;-64
2021/05/05 05:31:29;;;;;;;4.10;2.60;;;;;;;7.58;100.00;95296.50;5003392;28;20123;-63
2021/05/05 05:33:56;;;;;;;4.68;2.60;;;;;;;7.66;100.00;95308.84;5005630;28;20085;-65
2021/05/05 05:36:24;;;;;;;3.83;2.70;;;;;;;7.67;100.00;95307.84;5001751;28;20069;-66
2021/05/05 05:38:51;;;;;;;5.22;2.88;;;;;;;7.68;100.00;95306.09;5004957;28;20072;-65
2021/05/05 05:41:20;;;;;;;5.63;2.63;;;;;;;7.60;100.00;95298.97;5000290;28;20062;-66
2021/05/05 05:43:47;;;;;;;5.47;2.83;;;;;;;7.60;100.00;95302.44;5004540;28;20081;-65
2021/05/05 05:46:15;;;;;;;3.28;2.60;;;;;;;7.73;100.00;95298.56;5003896;28;20081;-67
2021/05/05 05:48:42;;;;;;;3.00;2.58;;;;;;;7.68;100.00;95296.41;5004909;28;20176;-64
2021/05/05 05:51:10;;;;;;;4.45;2.47;;;;;;;7.40;100.00;95297.50;4998934;28;20767;-65
2021/05/05 05:53:38;;;;;;;2.15;1.88;;;;;;;7.16;100.00;95279.81;5003615;28;20073;-65
2021/05/05 05:56:06;;;;;;;2.72;1.83;;;;;;;7.14;100.00;95291.28;4980109;28;20536;-66
2021/05/05 05:58:35;;;;;;;2.33;1.90;;;;;;;6.95;100.00;95281.00;5002315;28;20069;-65
2021/05/05 06:01:03;;;;;;;2.10;1.90;;;;;;;7.01;100.00;95277.75;5002000;28;20077;-65
2021/05/05 06:03:30;;;;;;;2.75;1.98;;;;;;;6.96;100.00;95287.88;5000191;28;20108;-65
2021/05/05 06:05:58;;;;;;;2.35;2.05;;;;;;;6.81;100.00;95299.84;5001922;28;20053;-66
2021/05/05 06:08:25;;;;;;;2.05;1.90;;;;;;;6.87;100.00;95315.78;5000266;28;20111;-65
2021/05/05 06:10:53;;;;;;;3.03;1.90;;;;;;;6.79;100.00;95322.75;5002765;28;20084;-65
2021/05/05 06:13:20;;;;;;;2.60;2.15;;;;;;;6.93;100.00;95335.34;5001437;28;20070;-66
2021/05/05 06:15:49;;;;;;;6.20;2.58;;;;;;;6.81;100.00;95342.59;5008606;28;20077;-66
2021/05/05 06:18:17;;;;;;;5.00;2.10;;;;;;;6.67;100.00;95361.44;5000943;28;20065;-66
2021/05/05 06:20:44;;;;;;;4.28;2.20;;;;;;;6.61;100.00;95362.88;5006296;28;20069;-66
2021/05/05 06:23:12;;;;;;;3.83;2.20;;;;;;;6.57;100.00;95348.41;5000614;28;20572;-65
2021/05/05 06:25:44;;;;;;;4.15;2.15;;;;;;;6.76;100.00;95349.25;5004171;28;20077;-66
2021/05/05 06:28:12;;;;;;;3.13;2.83;;;;;;;6.77;100.00;95354.34;4981038;28;20099;-66
2021/05/05 06:30:40;;;;;;;5.63;2.13;;;;;;;6.57;100.00;95365.91;5002555;28;20418;-64
2021/05/05 06:33:08;;;;;;;3.15;2.10;;;;;;;6.45;100.00;95374.94;4999898;28;20468;-64
2021/05/05 06:35:36;;;;;;;1.90;1.80;;;;;;;6.37;100.00;95381.75;5005028;28;20065;-65
2021/05/05 06:38:04;;;;;;;7.07;2.40;;;;;;;6.37;100.00;95389.59;5001526;28;20084;-66
2021/05/05 06:40:31;;;;;;;5.43;2.60;;;;;;;6.59;100.00;95395.41;5002598;28;20251;-66
2021/05/05 06:42:59;;;;;;;5.72;2.40;;;;;;;6.36;100.00;95398.41;5004113;28;20076;-67
2021/05/05 06:45:26;;;;;;;4.82;2.53;;;;;;;6.41;100.00;95396.19;5003913;28;20061;-67
2021/05/05 06:48:13;;;;;;;4.75;2.55;;;;;;;6.40;100.00;95404.16;5000932;28;20076;-67
2021/05/05 06:50:41;;;;;;;3.13;2.55;;;;;;;6.47;100.00;95407.88;5000050;28;20066;-64
2021/05/05 06:53:08;;;;;;;3.08;2.60;;;;;;;6.61;100.00;95409.19;5002192;28;20081;-67
2021/05/05 06:55:36;;;;;;;4.18;2.63;;;;;;;6.55;100.00;95415.00;5006411;28;20676;-67
2021/05/05 06:58:04;;;;;;;4.97;2.80;;;;;;;6.78;100.00;95410.16;5000475;28;20085;-66
2021/05/05 07:00:32;;;;;;;3.42;2.60;;;;;;;6.74;100.00;95411.44;5002475;28;20286;-66
2021/05/05 07:02:59;;;;;;;5.88;3.75;;;;;;;6.77;100.00;95406.72;5003029;28;20532;-67
2021/05/05 07:05:32;;;;;;;3.85;3.53;;;;;;;7.00;100.00;95396.66;4999754;28;20069;-67
2021/05/05 07:07:59;;;;;;;2.70;2.45;;;;;;;7.36;100.00;95402.75;5004058;28;20077;-67
2021/05/05 07:10:27;;;;;;;2.42;2.22;;;;;;;7.13;100.00;95397.13;5001704;28;20092;-68
2021/05/05 07:12:55;;;;;;;3.53;2.45;;;;;;;7.33;100.00;95395.19;5002314;28;20082;-67
2021/05/05 07:15:23;;;;;;;3.80;2.80;;;;;;;7.59;100.00;95383.91;4999737;28;20065;-67
2021/05/05 07:17:52;;;;;;;2.30;2.10;;;;;;;7.62;100.00;95373.09;5004358;28;20076;-66
2021/05/05 07:20:19;;;;;;;2.65;2.28;;;;;;;7.29;100.00;95379.88;5000392;28;20077;-66
2021/05/05 07:22:48;;;;;;;2.10;1.90;;;;;;;7.55;100.00;95378.13;4999851;28;20068;-67
2021/05/05 07:25:15;;;;;;;2.80;2.20;;;;;;;7.74;100.00;95376.28;5001745;28;20475;-66
2021/05/05 07:27:43;;;;;;;3.03;1.92;;;;;;;7.46;100.00;95384.28;5004080;28;20641;-67
2021/05/05 07:30:13;;;;;;;3.03;2.17;;;;;;;7.82;100.00;95377.19;4995882;28;20076;-69
2021/05/05 07:32:41;;;;;;;2.65;1.90;;;;;;;8.19;100.00;95373.47;5002175;28;20077;-68
2021/05/05 07:35:10;;;;;;;2.08;1.90;;;;;;;7.73;100.00;95379.91;5000499;28;20547;-67
2021/05/05 07:46:23;;;;;;;2.03;1.83;;;;;;;8.33;100.00;95385.19;4988789;28;20085;-67
2021/05/05 07:48:53;;;;;;;3.38;1.65;;;;;;;8.68;100.00;95375.50;5011914;28;20089;-68
2021/05/05 07:51:21;;;;;;;1.70;1.60;;;;;;;8.73;100.00;95381.91;5003179;28;20058;-66
2021/05/05 07:53:48;;;;;;;2.67;1.95;;;;;;;8.59;100.00;95384.31;4991177;28;20073;-68
2021/05/05 07:56:16;;;;;;;3.15;1.80;;;;;;;9.02;100.00;95384.13;5002567;28;20062;-66
2021/05/05 07:58:44;;;;;;;1.98;1.73;;;;;;;8.81;100.00;95370.59;4990668;28;20073;-66
2021/05/05 08:01:12;;;;;;;2.03;1.60;;;;;;;8.64;100.00;95390.75;5002912;28;20058;-65
2021/05/05 08:03:40;;;;;;;2.05;1.50;;;;;;;9.16;100.00;95384.47;5010982;28;20068;-65
2021/05/05 08:06:08;;;;;;;2.30;2.10;;;;;;;9.38;100.00;95388.28;4983727;28;20058;-64
2021/05/05 08:08:36;;;;;;;1.98;1.55;;;;;;;9.79;100.00;95377.72;4983953;28;20066;-67
2021/05/05 08:11:04;;;;;;;2.85;1.50;;;;;;;9.59;100.00;95382.50;4988749;28;20074;-66
2021/05/05 08:13:32;;;;;;;1.45;1.35;;;;;;;9.65;100.00;95377.41;5006098;28;20058;-66
2021/05/05 08:16:00;;;;;;;1.30;1.20;;;;;;;9.14;100.00;95384.63;4989977;28;20156;-66
2021/05/05 08:18:28;;;;;;;1.67;1.42;;;;;;;8.94;100.00;95378.81;4990846;28;20074;-66
2021/05/05 08:20:56;;;;;;;1.50;1.40;;;;;;;9.11;100.00;95374.41;5006259;28;20540;-66
2021/05/05 08:23:24;;;;;;;3.72;1.70;;;;;;;9.01;100.00;95390.34;4997063;28;20054;-66
2021/05/05 08:25:51;;;;;;;1.50;1.40;;;;;;;8.86;100.00;95386.69;5005601;28;20062;-64
2021/05/05 08:28:19;;;;;;;1.98;1.77;;;;;;;8.91;100.00;95396.72;4986895;28;20066;-66
2021/05/05 08:30:48;;;;;;;1.60;1.50;;;;;;;8.83;100.00;95407.22;4991948;28;20078;-66
2021/05/05 08:33:16;;;;;;;1.80;1.70;;;;;;;8.99;100.00;95423.88;5003725;28;20227;-66
2021/05/05 08:35:43;;;;;;;1.90;1.70;;;;;;;8.71;100.00;95449.59;5004649;28;20054;-66
2021/05/05 08:38:29;;;;;;;1.75;1.65;;;;;;;9.00;100.00;95449.19;5000473;28;20057;-66
2021/05/05 08:40:57;;;;;;;1.58;1.48;;;;;;;8.69;100.00;95441.03;5002899;28;20074;-66
2021/05/05 08:43:25;;;;;;;2.60;1.58;;;;;;;8.76;100.00;95449.09;4986018;28;20073;-66
2021/05/05 08:45:58;;;;;;;1.60;1.50;;;;;;;8.61;100.00;95456.75;4986439;28;20150;-66
2021/05/05 08:48:26;;;;;;;1.80;1.70;;;;;;;8.87;100.00;95445.34;4986284;28;20355;-66
2021/05/05 08:50:53;;;;;;;2.25;1.70;;;;;;;8.77;100.00;95451.59;5000766;28;20480;-66
2021/05/05 08:53:21;;;;;;;1.40;1.30;;;;;;;8.48;100.00;95435.34;5003197;28;20062;-66
2021/05/05 08:55:49;;;;;;;2.38;1.60;;;;;;;8.44;100.00;95432.22;5006431;28;20080;-67
2021/05/05 08:58:17;;;;;;;1.58;1.48;;;;;;;8.27;100.00;95428.63;5004282;28;20079;-68
2021/05/05 09:00:44;;;;;;;1.60;1.50;;;;;;;8.46;100.00;95416.28;5007188;28;20070;-66
2021/05/05 09:03:13;;;;;;;1.90;1.70;;;;;;;8.96;100.00;95418.94;4998602;28;20515;-65
2021/05/05 09:05:53;;;;;;;1.30;1.20;;;;;;;8.89;100.00;95425.81;5002146;28;20069;-68
2021/05/05 09:08:22;;;;;;;2.50;1.60;;;;;;;8.74;100.00;95430.88;5002204;28;20072;-65
2021/05/05 09:11:01;;;;;;;1.50;1.40;;;;;;;8.82;100.00;95443.22;5003022;28;20263;-67
2021/05/05 09:13:47;;;;;;;1.60;1.50;;;;;;;8.80;100.00;95450.41;5000390;28;20165;-67
2021/05/05 09:16:16;;;;;;;2.55;1.40;;;;;;;9.04;100.00;95441.78;5004827;28;20097;-67
2021/05/05 09:18:59;;;;;;;2.55;1.40;;;;;;;9.17;100.00;95441.34;5007098;28;20093;-66
2021/05/05 09:21:37;;;;;;;1.60;1.50;;;;;;;9.36;100.00;95445.47;5005509;28;20058;-68
2021/05/05 09:24:18;;;;;;;1.70;1.60;;;;;;;9.19;100.00;95426.22;5002090;28;20452;-69
2021/05/05 09:26:47;;;;;;;1.60;1.50;;;;;;;9.52;100.00;95424.44;5004670;28;20068;-67
2021/05/05 09:29:15;;;;;;;1.67;1.58;;;;;;;9.77;100.00;95430.53;5001561;28;20069;-68
2021/05/05 09:31:44;;;;;;;1.42;1.30;;;;;;;9.90;100.00;95430.88;5004761;28;20481;-68
2021/05/05 09:34:13;;;;;;;1.52;1.40;;;;;;;9.99;100.00;95442.22;4999645;28;20086;-68
2021/05/05 09:36:42;;;;;;;1.60;1.50;;;;;;;9.98;100.00;95446.69;5006256;28;20092;-67
2021/05/05 09:39:10;;;;;;;1.30;1.20;;;;;;;9.85;100.00;95445.53;4998377;28;20544;-67
2021/05/05 09:41:45;;;;;;;1.50;1.40;;;;;;;9.79;100.00;95447.00;5002555;28;20081;-68
2021/05/05 09:44:31;;;;;;;1.60;1.50;;;;;;;10.34;100.00;95445.50;4998151;28;20069;-67
2021/05/05 09:46:59;;;;;;;2.38;1.52;;;;;;;10.72;100.00;95436.00;5005144;28;20065;-67
2021/05/05 09:49:33;;;;;;;1.60;1.50;;;;;;;10.82;100.00;95441.06;5007366;28;23374;-67
2021/05/05 09:52:02;;;;;;;1.65;1.40;;;;;;;10.43;100.00;95433.97;5007153;28;20074;-68
2021/05/05 09:54:34;;;;;;;2.37;1.50;;;;;;;10.23;100.00;95434.28;5003168;28;20073;-68
2021/05/05 09:57:18;;;;;;;4.25;1.88;;;;;;;11.24;100.00;95432.78;4905105;28;20521;-67
2021/05/05 10:00:02;;;;;;;2.80;1.70;;;;;;;10.53;100.00;95442.50;5005695;28;20061;-67
2021/05/05 10:02:31;;;;;;;4.25;2.00;;;;;;;10.56;100.00;95444.78;5004027;28;20068;-68
2021/05/05 10:05:04;;;;;;;2.35;1.52;;;;;;;10.51;100.00;95438.38;4998419;28;20546;-68
2021/05/05 10:07:54;;;;;;;3.35;1.95;;;;;;;10.24;100.00;95440.38;5004489;28;20065;-68
2021/05/05 10:10:25;;;;;;;1.93;1.47;;;;;;;10.62;100.00;95449.38;5001254;28;20089;-66
2021/05/05 10:12:54;;;;;;;4.78;1.98;;;;;;;10.56;100.00;95449.22;5003868;28;20642;-69
2021/05/05 10:15:21;;;;;;;2.85;1.77;;;;;;;10.23;100.00;95450.09;5004087;28;20061;-68
2021/05/05 10:17:52;;;;;;;4.32;1.80;;;;;;;10.12;100.00;95445.19;5001369;28;20062;-67
2021/05/05 10:20:22;;;;;;;;;;;;;;;10.30;100.00;95441.56;5001738;28;20058;-68
2021/05/05 10:22:53;;;;;;;4.45;1.80;;;;;;;10.40;100.00;95429.84;5000811;28;19956;-67
2021/05/05 10:25:22;;;;;;;3.90;1.85;;;;;;;10.29;100.00;95460.97;5004540;28;20077;-69
2021/05/05 10:27:50;;;;;;;2.65;1.73;;;;;;;10.49;100.00;95456.16;5005482;28;20108;-67
2021/05/05 10:30:20;;;;;;;4.07;2.00;;;;;;;10.32;100.00;95456.19;5002562;28;20058;-69
2021/05/05 10:33:13;;;;;;;3.30;1.83;;;;;;;10.55;100.00;95445.78;5000482;28;20069;-69
2021/05/05 10:35:41;;;;;;;5.05;2.40;;;;;;;10.80;100.00;95456.22;5004114;28;20484;-69
2021/05/05 10:38:09;;;;;;;2.58;1.73;;;;;;;10.45;100.00;95474.94;4999965;28;20516;-68
2021/05/05 10:40:36;;;;;;;2.70;1.92;;;;;;;10.36;100.00;95472.53;4998754;28;20664;-68
2021/05/05 10:43:05;;;;;;;3.28;1.60;;;;;;;9.48;100.00;95458.16;5003315;28;20085;-68
2021/05/05 10:45:37;;;;;;;2.42;1.88;;;;;;;9.23;100.00;95480.97;4987879;28;20077;-66
2021/05/05 10:48:07;;;;;;;3.92;1.85;;;;;;;9.02;100.00;95506.88;4998520;28;20507;-67
2021/05/05 10:50:55;;;;;;;2.78;1.90;;;;;;;8.79;100.00;95522.38;5004310;28;20076;-64
2021/05/05 10:53:24;;;;;;;3.42;1.80;;;;;;;8.82;100.00;95487.91;4973325;28;20058;-66
2021/05/05 10:56:22;;;;;;;4.50;2.10;;;;;;;9.19;100.00;95482.28;4979653;28;20057;-65
2021/05/05 10:58:58;;;;;;;2.58;1.80;;;;;;;9.65;100.00;95489.78;5000367;28;20088;-66
2021/05/05 11:01:42;;;;;;;5.22;1.90;;;;;;;9.18;100.00;95471.91;4986024;28;20065;-66
2021/05/05 11:04:13;;;;;;;1.50;1.40;;;;;;;10.05;100.00;95501.31;5000874;28;20078;-66
2021/05/05 11:06:54;;;;;;;2.83;1.63;;;;;;;9.54;100.00;95490.91;4987793;28;20046;-67
2021/05/05 11:09:45;;;;;;;2.80;1.70;;;;;;;9.44;100.00;95498.94;4981175;28;20065;-67
2021/05/05 11:12:40;;;;;;;4.25;2.15;;;;;;;9.67;100.00;95495.69;4975072;28;20104;-65
2021/05/05 11:15:09;;;;;;;4.85;2.10;;;;;;;9.56;100.00;95498.63;5000017;28;20065;-67
2021/05/05 11:17:37;;;;;;;3.92;1.85;;;;;;;9.09;100.00;95517.59;5004926;28;20065;-67
2021/05/05 11:20:06;;;;;;;3.53;1.90;;;;;;;9.39;100.00;95510.94;5000004;28;20058;-68
2021/05/05 11:22:49;;;;;;;2.97;2.08;;;;;;;9.59;100.00;95499.13;4983318;28;20127;-67
2021/05/05 11:25:25;;;;;;;4.38;1.70;;;;;;;9.83;100.00;95508.06;5001767;28;20084;-67
2021/05/05 11:27:55;;;;;;;2.70;1.60;;;;;;;10.14;100.00;95503.78;5005534;28;20471;-67
2021/05/05 11:30:57;;;;;;;3.97;1.67;;;;;;;10.22;100.00;95524.88;4998374;28;20062;-68
2021/05/05 11:33:25;;;;;;;1.67;1.55;;;;;;;9.68;100.00;95511.34;5001485;28;20492;-68
2021/05/05 11:35:53;;;;;;;4.93;1.92;;;;;;;10.32;100.00;95516.78;4984414;28;20038;-67
2021/05/05 11:38:24;;;;;;;4.68;2.00;;;;;;;10.31;100.00;95532.78;4997988;28;20535;-66
2021/05/05 11:41:00;;;;;;;4.50;1.90;;;;;;;10.72;100.00;95522.19;5001160;28;20520;-67
2021/05/05 11:43:29;;;;;;;4.93;1.95;;;;;;;10.60;100.00;95516.47;5002863;28;20061;-67
2021/05/05 11:46:00;;;;;;;4.18;1.88;;;;;;;10.82;100.00;95518.38;4999952;28;20077;-67
2021/05/05 11:48:32;;;;;;;;;;;;;;;10.64;100.00;95510.66;5003114;28;20061;-68
2021/05/05 11:51:01;;;;;;;2.95;1.55;;;;;;;10.53;100.00;95512.81;4997939;28;19980;-67